Chicago, IL (60603)

12:14 AM CST on December 08, 2016 (GMT -0600)
West Loop | | Change Station

Elev 571 ft 41.88 °N, 87.64 °W | Updated 12 seconds ago

Light Snow
Light Snow
24.3 °F
Feels Like 12 °F
N
15.0
Wind Variable Wind from SW

Today
High -- | Low -- °F
--% Chance of Precip.
Yesterday
High -- | Low -- °F
Precip. -- in
Pressure 30.20 in
Visibility 10.0 miles
Clouds Overcast 2800 ft
Windchill 12 °F
Dew Point 12 °F
Humidity 60%
Rainfall 0.00 in
Snow Depth Not available.
7:05 AM 4:19 PM
First Quarter, 60% visible
METAR KMDW 080553Z 28016KT 10SM -SN OVC028 M04/M11 A3016 RMK AO2 PK WND 29029/0534 SLP227 P0000 60000 T10391106 11033 21044 410111044 50001
Pressure 30.20 in
Visibility 10.0 miles
Clouds Overcast 2800 ft
Windchill 12 °F
Dew Point 12 °F
Humidity 60%
Rainfall 0.00 in
Snow Depth Not available.
7:05 AM 4:19 PM
First Quarter, 60% visible
METAR KMDW 080553Z 28016KT 10SM -SN OVC028 M04/M11 A3016 RMK AO2 PK WND 29029/0534 SLP227 P0000 60000 T10391106 11033 21044 410111044 50001

10-Day Weather Forecast

Almanac

Astronomy

Dec. 08, 2016 Rise Set
Actual Time
Civil Twilight
Nautical Twilight
Astronomical Twilight
Moon
Length of Visible Light
Length of Day
Tomorrow will be .
, % of the Moon is Illuminated

Today's Extremes

State Highs State Lows

Community

WunderPhotos

Upload Photos

1,956,259 photos uploaded!

WunderBlog® & News

Nearby

Air Quality

  Air Quality AQ Index Pollutant
Not available.

Snow Depth

Station Depth Elevation

Earthquake Activity

City Distance Mag. Time & Date
Minimum magnitude displayed is 2.5.

Coastal Water Temperatures

Place Temperature

Stations

Nearby Weather Stations

Station Location Temp. Windchill Dew Point Humidity Wind Precip. Elev Updated Type
                   

Watches & Warnings

There are currently no watches in effect.